Time;durP1;ratioP1;P1;durP2;ratioP2;P2;SDS_P1;SDS_P2;PMS_P1;PMS_P2;Temp;Humidity;BMP_temperature;BMP_pressure;BME280_temperature;BME280_humidity;BME280_pressure;Samples;Min_cycle;Max_cycle;Signal;HPM_P1;HPM_P2
2022/11/30 00:00:54;;;;;;;;;;;;;;;8.82;65.99;95257.38;5114466;28;1119;-70
2022/11/30 00:03:21;;;;;;;;;;;;;;;8.86;66.50;95261.44;5114345;28;1073;-70
2022/11/30 00:05:47;;;;;;;;;;;;;;;8.74;66.10;95255.44;5114474;28;1082;-70
2022/11/30 00:08:14;;;;;;;;;;;;;;;8.62;66.91;95255.78;5114246;28;1052;-70
2022/11/30 00:10:40;;;;;;;;;;;;;;;8.67;66.81;95256.16;5114217;28;1987;-70
2022/11/30 00:13:07;;;;;;;;;;;;;;;8.78;66.68;95261.31;5113078;28;1085;-70
2022/11/30 00:15:33;;;;;;;;;;;;;;;8.70;66.29;95255.88;5114358;28;932;-70
2022/11/30 00:17:59;;;;;;;;;;;;;;;8.71;66.44;95250.41;5114161;28;1132;-70
2022/11/30 00:20:27;;;;;;;;;;;;;;;8.82;66.30;95248.53;5114090;28;1151;-70
2022/11/30 00:22:53;;;;;;;;;;;;;;;8.85;66.50;95243.75;5112944;28;1143;-70
2022/11/30 00:25:19;;;;;;;;;;;;;;;8.89;66.13;95254.97;5114274;28;973;-70
2022/11/30 00:27:45;;;;;;;;;;;;;;;8.87;65.99;95252.44;5114267;28;1079;-69
2022/11/30 00:30:11;;;;;;;;;;;;;;;8.81;66.14;95247.69;5114076;28;1902;-70
2022/11/30 00:32:37;;;;;;;;;;;;;;;8.85;66.33;95246.41;5114185;28;953;-70
2022/11/30 00:35:04;;;;;;;;;;;;;;;8.68;66.54;95247.19;5114022;28;1052;-70
2022/11/30 00:37:30;;;;;;;;;;;;;;;8.67;67.15;95249.03;5113751;28;1470;-70
2022/11/30 00:39:57;;;;;;;;;;;;;;;8.53;67.24;95246.84;5112630;28;1244;-70
2022/11/30 00:42:23;;;;;;;;;;;;;;;8.57;67.36;95246.41;5113952;28;1004;-70
2022/11/30 00:44:49;;;;;;;;;;;;;;;8.71;67.06;95236.25;5113812;28;1125;-69
2022/11/30 00:47:15;;;;;;;;;;;;;;;8.77;66.54;95235.66;5113817;28;1054;-70
2022/11/30 00:49:41;;;;;;;;;;;;;;;8.58;66.86;95231.25;5113813;28;1077;-70
2022/11/30 00:52:07;;;;;;;;;;;;;;;8.46;67.30;95229.75;5113774;28;1922;-70
2022/11/30 00:54:34;;;;;;;;;;;;;;;8.48;67.43;95225.09;5113921;28;1036;-70
2022/11/30 00:57:00;;;;;;;;;;;;;;;8.62;66.95;95232.63;5113726;28;1053;-70
2022/11/30 00:59:26;;;;;;;;;;;;;;;8.71;66.63;95228.25;5113854;28;1023;-70
2022/11/30 01:01:53;;;;;;;;;;;;;;;8.78;66.30;95216.00;5113848;28;1039;-70
2022/11/30 01:04:19;;;;;;;;;;;;;;;8.75;66.57;95226.97;5117451;28;1032;-70
2022/11/30 01:06:46;;;;;;;;;;;;;;;8.71;66.54;95233.59;5117842;28;965;-70
2022/11/30 01:09:12;;;;;;;;;;;;;;;8.70;66.60;95235.41;5117978;28;989;-70
2022/11/30 01:11:38;;;;;;;;;;;;;;;8.74;66.54;95226.09;5117845;28;1999;-70
2022/11/30 01:14:04;;;;;;;;;;;;;;;8.50;67.33;95226.66;5117920;28;1048;-70
2022/11/30 01:16:31;;;;;;;;;;;;;;;8.45;67.61;95228.91;5117840;28;1043;-70
2022/11/30 01:18:58;;;;;;;;;;;;;;;8.57;67.27;95230.44;5117451;28;1012;-70
2022/11/30 01:21:25;;;;;;;;;;;;;;;8.46;67.38;95230.59;5117505;28;1082;-70
2022/11/30 01:23:52;;;;;;;;;;;;;;;8.44;67.79;95226.38;5117503;28;1069;-70
2022/11/30 01:26:18;;;;;;;;;;;;;;;8.50;67.46;95229.31;5116116;28;1648;-70
2022/11/30 01:28:48;;;;;;;;;;;;;;;8.54;67.25;95224.53;5117598;28;1020;-69
2022/11/30 01:31:14;;;;;;;;;;;;;;;8.64;67.02;95219.16;5117387;28;1991;-70
2022/11/30 01:33:41;;;;;;;;;;;;;;;8.67;66.70;95213.53;5117433;28;1047;-70
2022/11/30 01:36:16;;;;;;;;;;;;;;;8.57;66.90;95226.91;5117324;27;1020;-70
2022/11/30 01:38:43;;;;;;;;;;;;;;;8.57;67.12;95222.44;5117008;28;1202;-70
2022/11/30 01:41:11;;;;;;;;;;;;;;;8.79;66.78;95221.19;5117487;28;1059;-70
2022/11/30 01:43:40;;;;;;;;;;;;;;;8.84;66.45;95207.41;5117311;28;1244;-70
2022/11/30 01:46:18;;;;;;;;;;;;;;;8.70;66.88;95213.25;5116835;28;1295;-70
2022/11/30 01:48:44;;;;;;;;;;;;;;;8.72;66.86;95208.59;5117102;28;1064;-70
2022/11/30 01:51:10;;;;;;;;;;;;;;;8.86;66.58;95207.25;5116874;27;1909;-69
2022/11/30 01:53:36;;;;;;;;;;;;;;;8.96;66.42;95205.38;5117037;28;1028;-70
2022/11/30 01:56:02;;;;;;;;;;;;;;;8.99;66.09;95211.25;5116768;28;1107;-70
2022/11/30 01:58:29;;;;;;;;;;;;;;;8.97;66.50;95209.72;5116849;28;1119;-70
2022/11/30 02:00:55;;;;;;;;;;;;;;;9.01;65.97;95205.78;5116925;27;1223;-68
2022/11/30 02:03:56;;;;;;;;;;;;;;;9.01;65.95;95213.78;5116672;28;965;-70
2022/11/30 02:06:23;;;;;;;;;;;;;;;9.04;66.42;95204.63;5053615;28;1391;-69
2022/11/30 02:08:50;;;;;;;;;;;;;;;8.99;66.22;95205.94;5104321;28;1148;-70
2022/11/30 02:11:16;;;;;;;;;;;;;;;8.99;66.25;95202.41;5116496;28;1897;-70
2022/11/30 02:13:48;;;;;;;;;;;;;;;8.97;66.19;95209.72;5116388;28;1049;-70
2022/11/30 02:16:33;;;;;;;;;;;;;;;8.91;66.70;95204.97;5116130;28;1062;-70
2022/11/30 02:19:19;;;;;;;;;;;;;;;8.87;66.81;95209.78;5115423;28;1032;-70
2022/11/30 02:21:57;;;;;;;;;;;;;;;8.63;67.18;95201.47;5116108;28;1298;-70
2022/11/30 02:24:23;;;;;;;;;;;;;;;8.65;67.76;95207.50;5116214;28;1176;-70
2022/11/30 02:26:58;;;;;;;;;;;;;;;8.73;67.12;95208.44;5116435;28;973;-70
2022/11/30 02:29:30;;;;;;;;;;;;;;;8.74;67.24;95193.28;5116109;28;1081;-70
2022/11/30 02:32:03;;;;;;;;;;;;;;;8.74;67.14;95191.44;5116075;28;1906;-70
2022/11/30 02:34:30;;;;;;;;;;;;;;;8.81;67.28;95193.56;5116076;28;971;-70
2022/11/30 02:36:57;;;;;;;;;;;;;;;8.90;66.83;95198.00;5116127;28;1332;-68
2022/11/30 02:39:24;;;;;;;;;;;;;;;8.98;66.44;95198.06;5115734;28;1164;-70
2022/11/30 02:41:50;;;;;;;;;;;;;;;8.96;66.60;95194.72;5115004;28;1039;-70
2022/11/30 02:44:18;;;;;;;;;;;;;;;8.88;66.77;95192.81;5115798;27;1112;-70
2022/11/30 02:46:51;;;;;;;;;;;;;;;8.91;67.15;95194.31;5114822;28;1067;-70
2022/11/30 02:49:29;;;;;;;;;;;;;;;8.99;66.47;95199.72;5115794;28;1301;-70
2022/11/30 02:51:57;;;;;;;;;;;;;;;9.03;66.31;95208.28;5114594;28;2051;-69
2022/11/30 02:54:23;;;;;;;;;;;;;;;8.99;66.45;95205.94;5115917;28;964;-70
2022/11/30 02:56:49;;;;;;;;;;;;;;;9.05;66.17;95199.16;5115861;28;1004;-70
2022/11/30 02:59:15;;;;;;;;;;;;;;;9.02;66.55;95204.78;5115572;28;1589;-69
2022/11/30 03:01:42;;;;;;;;;;;;;;;9.05;66.65;95206.28;5115661;28;1012;-70
2022/11/30 03:04:08;;;;;;;;;;;;;;;8.96;67.02;95208.88;5115882;28;1008;-70
2022/11/30 03:06:34;;;;;;;;;;;;;;;8.95;67.21;95212.56;5115450;28;1066;-70
2022/11/30 03:09:00;;;;;;;;;;;;;;;8.94;67.29;95204.69;5115454;28;1246;-70
2022/11/30 03:11:26;;;;;;;;;;;;;;;8.89;67.82;95213.13;5115470;28;1890;-70
2022/11/30 03:13:53;;;;;;;;;;;;;;;8.86;67.69;95199.25;5115520;28;956;-69
2022/11/30 03:16:19;;;;;;;;;;;;;;;8.84;68.05;95194.09;5115257;28;1128;-70
2022/11/30 03:18:45;;;;;;;;;;;;;;;8.89;67.82;95198.97;5115232;28;966;-69
2022/11/30 03:21:11;;;;;;;;;;;;;;;8.94;67.45;95204.69;5115237;28;1061;-70
2022/11/30 03:23:37;;;;;;;;;;;;;;;8.85;67.69;95206.41;5115217;28;1048;-70
2022/11/30 03:26:05;;;;;;;;;;;;;;;8.87;67.78;95203.59;5115114;28;1122;-70
2022/11/30 03:28:31;;;;;;;;;;;;;;;8.89;67.80;95206.97;5115129;28;1004;-70
2022/11/30 03:30:57;;;;;;;;;;;;;;;8.92;67.67;95201.34;5114911;28;1906;-70
2022/11/30 03:33:24;;;;;;;;;;;;;;;8.77;68.12;95198.34;5114890;28;1071;-70
2022/11/30 03:36:06;;;;;;;;;;;;;;;8.76;67.95;95197.50;5114969;28;1107;-70
2022/11/30 03:38:33;;;;;;;;;;;;;;;8.74;68.26;95198.63;5114801;28;1169;-69
2022/11/30 03:41:04;;;;;;;;;;;;;;;8.77;68.13;95209.00;5114775;28;1244;-70
2022/11/30 03:43:30;;;;;;;;;;;;;;;8.81;67.97;95206.88;5114827;28;949;-70
2022/11/30 03:45:57;;;;;;;;;;;;;;;8.90;67.97;95206.81;5114770;28;1035;-70
2022/11/30 03:48:23;;;;;;;;;;;;;;;8.88;67.59;95210.59;5114592;28;1061;-70
2022/11/30 03:50:50;;;;;;;;;;;;;;;8.67;68.08;95209.06;5114741;28;1991;-70
2022/11/30 03:53:17;;;;;;;;;;;;;;;8.66;68.64;95209.19;5114679;28;965;-70
2022/11/30 03:55:43;;;;;;;;;;;;;;;8.77;67.90;95209.81;5114514;28;1153;-70
2022/11/30 03:58:09;;;;;;;;;;;;;;;8.76;68.32;95205.50;5114386;28;1095;-70
2022/11/30 04:00:36;;;;;;;;;;;;;;;8.76;68.22;95213.50;5113258;28;1131;-70
2022/11/30 04:03:02;;;;;;;;;;;;;;;8.83;68.02;95212.91;5114682;28;953;-70
2022/11/30 04:05:28;;;;;;;;;;;;;;;8.93;67.49;95216.34;5114350;28;1139;-69
2022/11/30 04:07:54;;;;;;;;;;;;;;;8.93;67.56;95211.84;5114437;28;961;-70
2022/11/30 04:10:22;;;;;;;;;;;;;;;8.91;67.43;95212.97;5114359;28;1905;-70
2022/11/30 04:12:48;;;;;;;;;;;;;;;8.91;67.57;95207.66;5114319;28;1084;-70
2022/11/30 04:15:14;;;;;;;;;;;;;;;8.77;68.27;95219.66;5114194;28;1083;-70
2022/11/30 04:17:41;;;;;;;;;;;;;;;8.87;67.85;95211.59;5114232;28;1232;-70
2022/11/30 04:20:07;;;;;;;;;;;;;;;8.90;67.64;95208.66;5114183;28;1116;-70
2022/11/30 04:22:33;;;;;;;;;;;;;;;8.92;67.62;95204.00;5114199;28;1024;-70
2022/11/30 04:24:59;;;;;;;;;;;;;;;8.86;67.62;95205.44;5114069;28;1080;-70
2022/11/30 04:27:27;;;;;;;;;;;;;;;8.83;67.74;95208.41;5113945;28;1465;-70
2022/11/30 04:29:53;;;;;;;;;;;;;;;8.84;67.74;95212.75;5114320;28;1028;-70
2022/11/30 04:32:20;;;;;;;;;;;;;;;8.77;68.22;95215.16;5114084;28;988;-70
2022/11/30 04:34:46;;;;;;;;;;;;;;;8.88;67.96;95211.47;5114039;28;1052;-70
2022/11/30 04:37:12;;;;;;;;;;;;;;;8.93;67.68;95214.50;5113528;28;1132;-70
2022/11/30 04:39:38;;;;;;;;;;;;;;;8.81;67.90;95209.53;5113751;28;1246;-70
2022/11/30 04:42:07;;;;;;;;;;;;;;;8.84;68.22;95212.75;5113895;28;1060;-69
2022/11/30 04:44:33;;;;;;;;;;;;;;;8.92;67.93;95214.69;5113827;28;1133;-70
2022/11/30 04:46:59;;;;;;;;;;;;;;;8.93;67.67;95213.66;5113829;28;1091;-70
2022/11/30 04:49:25;;;;;;;;;;;;;;;9.01;67.26;95211.13;5113755;28;1069;-70
2022/11/30 04:51:51;;;;;;;;;;;;;;;8.97;67.59;95221.25;5112655;28;1993;-70
2022/11/30 04:54:17;;;;;;;;;;;;;;;9.05;67.49;95222.28;5113817;28;974;-70
2022/11/30 04:56:43;;;;;;;;;;;;;;;9.09;67.63;95223.69;5113822;28;1031;-70
2022/11/30 04:59:10;;;;;;;;;;;;;;;8.99;67.71;95229.94;5114005;28;1033;-70
2022/11/30 05:01:36;;;;;;;;;;;;;;;9.02;67.63;95223.44;5113876;28;1000;-70
2022/11/30 05:04:02;;;;;;;;;;;;;;;9.03;67.16;95225.13;5113694;28;1575;-70
2022/11/30 05:06:28;;;;;;;;;;;;;;;8.84;67.92;95230.56;5113771;28;1039;-70
2022/11/30 05:08:54;;;;;;;;;;;;;;;8.70;68.37;95238.06;5113585;28;1162;-70
2022/11/30 05:11:21;;;;;;;;;;;;;;;8.52;68.65;95237.19;5113453;28;1956;-69
2022/11/30 05:13:47;;;;;;;;;;;;;;;8.40;69.30;95240.00;5113607;28;1039;-70
2022/11/30 05:16:13;;;;;;;;;;;;;;;8.49;69.24;95234.78;5113555;28;1099;-70
2022/11/30 05:18:39;;;;;;;;;;;;;;;8.62;69.15;95237.97;5113719;28;965;-69
2022/11/30 05:21:05;;;;;;;;;;;;;;;8.86;68.14;95224.09;5113609;28;1175;-69
2022/11/30 05:23:31;;;;;;;;;;;;;;;8.98;67.83;95227.41;5113483;28;1115;-69
2022/11/30 05:26:00;;;;;;;;;;;;;;;9.07;67.29;95228.31;5113451;28;1089;-69
2022/11/30 05:28:26;;;;;;;;;;;;;;;9.04;67.18;95234.78;5113698;28;1052;-68
2022/11/30 05:30:52;;;;;;;;;;;;;;;9.06;67.24;95235.47;5113605;28;1996;-67
2022/11/30 05:33:18;;;;;;;;;;;;;;;8.98;67.24;95235.41;5113388;28;1120;-68
2022/11/30 05:35:44;;;;;;;;;;;;;;;8.77;68.42;95252.47;5113520;28;1206;-68
2022/11/30 05:38:10;;;;;;;;;;;;;;;8.93;68.21;95248.34;5113413;28;1317;-68
2022/11/30 05:40:36;;;;;;;;;;;;;;;9.05;67.89;95246.28;5113085;28;1088;-68
2022/11/30 05:43:03;;;;;;;;;;;;;;;9.14;67.29;95248.94;5113298;28;1059;-67
2022/11/30 05:45:29;;;;;;;;;;;;;;;9.08;67.58;95249.50;5113512;28;996;-69
2022/11/30 05:47:55;;;;;;;;;;;;;;;9.13;67.53;95241.06;5113297;28;1098;-69
2022/11/30 05:50:21;;;;;;;;;;;;;;;9.14;67.34;95248.94;5115148;28;1986;-67
2022/11/30 05:52:47;;;;;;;;;;;;;;;9.07;67.53;95242.50;5116991;28;1463;-67
2022/11/30 05:55:13;;;;;;;;;;;;;;;9.01;67.57;95242.25;5116883;28;1025;-67
2022/11/30 05:57:39;;;;;;;;;;;;;;;9.02;67.84;95239.44;5116867;28;1099;-67
2022/11/30 06:00:06;;;;;;;;;;;;;;;9.07;67.59;95238.97;5117098;28;1023;-67
2022/11/30 06:02:33;;;;;;;;;;;;;;;9.06;67.43;95246.16;5116936;28;1040;-66
2022/11/30 06:04:59;;;;;;;;;;;;;;;9.18;67.34;95249.44;5116891;28;1104;-66
2022/11/30 06:07:25;;;;;;;;;;;;;;;9.24;67.59;95246.19;5116644;28;1119;-67
2022/11/30 06:09:51;;;;;;;;;;;;;;;9.22;67.46;95250.00;5116684;28;988;-67
2022/11/30 06:12:17;;;;;;;;;;;;;;;9.19;67.64;95257.31;5116415;28;1913;-68
2022/11/30 06:14:43;;;;;;;;;;;;;;;9.22;67.62;95250.00;5116878;27;1028;-68
2022/11/30 06:17:09;;;;;;;;;;;;;;;9.24;67.28;95248.00;5116539;28;1111;-69
2022/11/30 06:19:35;;;;;;;;;;;;;;;9.25;67.25;95247.03;5116399;28;1574;-68
2022/11/30 06:22:01;;;;;;;;;;;;;;;9.22;67.67;95250.84;5116251;28;1111;-69
2022/11/30 06:24:27;;;;;;;;;;;;;;;9.21;67.31;95254.50;5114945;28;1399;-69
2022/11/30 06:26:53;;;;;;;;;;;;;;;9.27;67.73;95259.22;5116288;28;1239;-69
2022/11/30 06:29:19;;;;;;;;;;;;;;;9.28;67.24;95260.09;5116155;28;1069;-69
2022/11/30 06:31:46;;;;;;;;;;;;;;;9.24;67.54;95266.69;5116389;28;1913;-70
2022/11/30 06:34:12;;;;;;;;;;;;;;;9.32;67.69;95256.13;5116090;28;1084;-68
2022/11/30 06:36:38;;;;;;;;;;;;;;;9.38;67.25;95266.19;5116210;28;1093;-68
2022/11/30 06:39:04;;;;;;;;;;;;;;;9.41;67.17;95273.03;5115808;28;1198;-68
2022/11/30 06:41:30;;;;;;;;;;;;;;;9.48;66.91;95266.09;5115852;28;1292;-68
2022/11/30 06:43:56;;;;;;;;;;;;;;;9.56;66.77;95271.50;5115968;28;1119;-68
2022/11/30 06:46:22;;;;;;;;;;;;;;;9.60;66.26;95274.72;5115895;28;1065;-68
2022/11/30 06:48:49;;;;;;;;;;;;;;;9.64;66.31;95276.97;5115984;28;996;-69
2022/11/30 06:51:16;;;;;;;;;;;;;;;9.56;66.22;95277.72;5114523;28;2004;-68
2022/11/30 06:53:42;;;;;;;;;;;;;;;9.53;66.39;95283.34;5115738;28;977;-68
2022/11/30 06:56:09;;;;;;;;;;;;;;;9.55;66.60;95278.69;5115685;28;1083;-68
2022/11/30 06:58:35;;;;;;;;;;;;;;;9.43;66.54;95269.25;5115616;28;1156;-69
2022/11/30 07:01:12;;;;;;;;;;;;;;;9.48;66.91;95274.13;5115356;28;1052;-67
2022/11/30 07:03:39;;;;;;;;;;;;;;;9.48;66.96;95274.13;5115706;28;1068;-70
2022/11/30 07:06:09;;;;;;;;;;;;;;;9.52;66.88;95272.81;5115651;28;1008;-70
2022/11/30 07:08:36;;;;;;;;;;;;;;;9.47;67.13;95273.28;5115586;28;1032;-67
2022/11/30 07:11:02;;;;;;;;;;;;;;;9.50;66.87;95270.28;5115629;28;1990;-68
2022/11/30 07:13:29;;;;;;;;;;;;;;;9.54;67.02;95266.34;5115568;28;1032;-66
2022/11/30 07:15:55;;;;;;;;;;;;;;;9.63;66.26;95269.09;5115561;28;969;-67
2022/11/30 07:18:21;;;;;;;;;;;;;;;9.57;66.65;95271.38;5115324;28;992;-68
2022/11/30 07:20:47;;;;;;;;;;;;;;;9.59;66.57;95265.88;5115428;28;1236;-68
2022/11/30 07:26:11;;;;;;;;;;;;;;;9.42;66.55;95261.38;5115501;28;993;-68
2022/11/30 07:28:41;;;;;;;;;;;;;;;9.36;67.30;95268.16;5115169;28;1065;-67
2022/11/30 07:31:19;;;;;;;;;;;;;;;9.32;67.32;95264.13;5115104;28;1910;-67
2022/11/30 07:33:45;;;;;;;;;;;;;;;9.16;67.63;95262.97;5115048;28;1039;-67
2022/11/30 07:36:12;;;;;;;;;;;;;;;9.22;67.60;95271.34;5115021;28;1060;-67
2022/11/30 07:38:38;;;;;;;;;;;;;;;9.32;66.95;95262.28;5114862;28;1193;-68
2022/11/30 07:41:04;;;;;;;;;;;;;;;9.43;66.83;95266.56;5114689;28;1147;-68
2022/11/30 07:43:30;;;;;;;;;;;;;;;9.55;66.50;95268.00;5114860;28;969;-67
2022/11/30 07:45:57;;;;;;;;;;;;;;;9.55;66.74;95273.34;5114929;28;977;-71
2022/11/30 07:48:23;;;;;;;;;;;;;;;9.58;67.56;95265.06;5114703;28;1017;-69
2022/11/30 07:50:49;;;;;;;;;;;;;;;9.60;66.81;95274.72;5113624;28;2035;-67
2022/11/30 07:53:15;;;;;;;;;;;;;;;9.45;66.67;95275.25;5114613;28;1088;-68
2022/11/30 07:55:41;;;;;;;;;;;;;;;9.56;66.61;95275.03;5114526;28;1120;-67
2022/11/30 07:58:08;;;;;;;;;;;;;;;9.52;66.55;95267.47;5114594;28;1065;-69
2022/11/30 08:00:35;;;;;;;;;;;;;;;9.47;66.66;95270.63;5114309;28;972;-69
2022/11/30 08:03:01;;;;;;;;;;;;;;;9.47;66.75;95269.78;5114351;28;1047;-69
2022/11/30 08:05:27;;;;;;;;;;;;;;;9.45;66.85;95277.94;5114359;28;1531;-69
2022/11/30 08:07:53;;;;;;;;;;;;;;;9.56;66.83;95271.50;5114408;28;1011;-69
2022/11/30 08:10:20;;;;;;;;;;;;;;;9.70;66.28;95272.84;5114073;28;1910;-69
2022/11/30 08:12:46;;;;;;;;;;;;;;;9.69;66.38;95274.66;5113614;28;1040;-69
2022/11/30 08:15:12;;;;;;;;;;;;;;;9.73;66.48;95280.53;5114168;28;1047;-69
2022/11/30 08:17:38;;;;;;;;;;;;;;;9.73;66.67;95277.84;5114084;28;1051;-69
2022/11/30 08:20:07;;;;;;;;;;;;;;;9.78;66.37;95280.91;5114301;28;996;-69
2022/11/30 08:22:33;;;;;;;;;;;;;;;9.81;66.21;95283.28;5114199;28;1005;-69
2022/11/30 08:25:00;;;;;;;;;;;;;;;9.74;66.13;95293.72;5114169;28;1086;-69
2022/11/30 08:27:26;;;;;;;;;;;;;;;9.74;66.17;95304.41;5113863;28;1112;-69
2022/11/30 08:29:52;;;;;;;;;;;;;;;9.75;66.09;95298.09;5113995;28;975;-68
2022/11/30 08:32:18;;;;;;;;;;;;;;;9.78;65.67;95302.28;5112765;28;1987;-68
2022/11/30 08:38:06;;;;;;;;;;;;;;;9.96;65.78;95307.63;5113956;28;1287;-68
2022/11/30 08:40:32;;;;;;;;;;;;;;;10.00;65.68;95313.47;5113480;28;1072;-68
2022/11/30 08:42:59;;;;;;;;;;;;;;;10.04;65.67;95298.84;5113962;28;1078;-67
2022/11/30 08:45:26;;;;;;;;;;;;;;;10.13;65.46;95297.88;5113733;28;1293;-68
2022/11/30 08:47:53;;;;;;;;;;;;;;;10.20;65.44;95293.63;5113867;28;1019;-68
2022/11/30 08:50:19;;;;;;;;;;;;;;;10.12;65.03;95296.22;5113658;28;1902;-69
2022/11/30 08:52:45;;;;;;;;;;;;;;;10.07;65.23;95293.19;5113809;28;1015;-68
2022/11/30 08:55:11;;;;;;;;;;;;;;;10.03;65.57;95291.81;5113622;28;1032;-69
2022/11/30 08:57:37;;;;;;;;;;;;;;;10.13;65.57;95292.56;5113856;28;1039;-68
2022/11/30 09:00:04;;;;;;;;;;;;;;;10.25;65.24;95291.31;5113915;28;1040;-68
2022/11/30 09:02:30;;;;;;;;;;;;;;;10.01;65.13;95296.47;5113497;28;1124;-68
2022/11/30 09:04:56;;;;;;;;;;;;;;;10.11;65.94;95289.19;5113591;28;1131;-67
2022/11/30 09:07:22;;;;;;;;;;;;;;;10.27;65.30;95292.00;5113588;28;976;-68
2022/11/30 09:09:48;;;;;;;;;;;;;;;10.26;65.75;95292.16;5113559;28;1016;-71
2022/11/30 09:12:14;;;;;;;;;;;;;;;10.21;65.79;95287.28;5113626;28;1905;-68
2022/11/30 09:14:40;;;;;;;;;;;;;;;10.16;66.10;95295.75;5113715;28;965;-67
2022/11/30 09:17:06;;;;;;;;;;;;;;;10.20;66.18;95290.94;5113650;28;1020;-67
2022/11/30 09:19:32;;;;;;;;;;;;;;;10.23;66.36;95287.13;5113759;28;1036;-71
2022/11/30 09:21:59;;;;;;;;;;;;;;;10.14;66.58;95281.72;5113362;28;1203;-67
2022/11/30 09:24:25;;;;;;;;;;;;;;;10.00;66.22;95278.75;5115367;28;1043;-67
2022/11/30 09:26:53;;;;;;;;;;;;;;;10.08;66.99;95284.19;5117379;28;1073;-69
2022/11/30 09:29:19;;;;;;;;;;;;;;;9.97;66.63;95280.75;5117494;28;1044;-66
2022/11/30 09:31:45;;;;;;;;;;;;;;;10.09;66.83;95276.03;5117373;28;1909;-68
2022/11/30 09:34:12;;;;;;;;;;;;;;;10.05;66.04;95273.78;5117431;27;992;-68
2022/11/30 09:36:38;;;;;;;;;;;;;;;9.74;67.37;95274.22;5117345;28;1016;-67
2022/11/30 09:39:05;;;;;;;;;;;;;;;9.76;67.58;95274.88;5116855;27;1422;-68
2022/11/30 09:41:51;;;;;;;;;;;;;;;9.95;67.28;95273.88;5117315;28;1055;-67
2022/11/30 09:44:22;;;;;;;;;;;;;;;9.90;67.27;95262.81;5117121;28;969;-67
2022/11/30 09:46:54;;;;;;;;;;;;;;;9.87;66.83;95261.31;5117169;28;1027;-67
2022/11/30 09:49:47;;;;;;;;;;;;;;;9.77;66.94;95265.91;5116949;28;1033;-67
2022/11/30 09:52:18;;;;;;;;;;;;;;;9.69;67.05;95273.81;5114209;28;1909;-67
2022/11/30 09:54:46;;;;;;;;;;;;;;;9.49;68.22;95262.47;5116848;28;1053;-67
2022/11/30 09:57:30;;;;;;;;;;;;;;;9.64;67.90;95260.09;5116745;27;1158;-67
2022/11/30 10:00:04;;;;;;;;;;;;;;;9.82;67.26;95262.75;5116781;28;1060;-67
2022/11/30 10:02:32;;;;;;;;;;;;;;;9.94;66.78;95262.38;5116917;28;1052;-67
2022/11/30 10:04:59;;;;;;;;;;;;;;;9.97;66.67;95262.03;5116862;28;989;-67
2022/11/30 10:07:40;;;;;;;;;;;;;;;10.01;66.79;95264.41;5116691;28;1067;-67
2022/11/30 10:10:07;;;;;;;;;;;;;;;9.96;67.21;95262.22;5116643;28;995;-67
2022/11/30 10:12:36;;;;;;;;;;;;;;;10.05;67.02;95263.09;5116328;28;965;-67
2022/11/30 10:15:11;;;;;;;;;;;;;;;10.28;66.08;95266.09;5116819;28;1025;-67
2022/11/30 10:17:37;;;;;;;;;;;;;;;10.33;65.93;95258.50;5116677;28;981;-67
2022/11/30 10:20:29;;;;;;;;;;;;;;;10.25;66.41;95253.09;5116644;28;1036;-68
2022/11/30 10:22:55;;;;;;;;;;;;;;;10.28;65.91;95258.09;5113563;28;1207;-68
2022/11/30 10:25:23;;;;;;;;;;;;;;;10.24;65.77;95243.38;5116523;28;968;-68
2022/11/30 10:27:53;;;;;;;;;;;;;;;10.34;65.20;95245.00;5116534;28;1040;-68
2022/11/30 10:30:21;;;;;;;;;;;;;;;10.29;65.57;95247.25;5116201;28;1902;-68
2022/11/30 10:32:50;;;;;;;;;;;;;;;10.31;65.99;95237.28;5116361;28;1020;-68
2022/11/30 10:35:32;;;;;;;;;;;;;;;10.38;64.83;95237.50;5115490;28;1004;-68
2022/11/30 10:38:02;;;;;;;;;;;;;;;10.41;64.63;95239.84;5116376;28;1200;-67
2022/11/30 10:40:28;;;;;;;;;;;;;;;10.35;64.67;95243.97;5116047;28;1123;-67
2022/11/30 10:43:06;;;;;;;;;;;;;;;10.51;64.50;95243.25;5116073;28;1114;-67
2022/11/30 10:45:32;;;;;;;;;;;;;;;10.49;64.91;95242.56;5116028;28;1023;-67
2022/11/30 10:48:02;;;;;;;;;;;;;;;10.50;64.67;95235.38;5116063;28;1024;-67
2022/11/30 10:50:29;;;;;;;;;;;;;;;10.32;64.96;95236.28;5116078;28;1906;-66
2022/11/30 10:52:57;;;;;;;;;;;;;;;10.05;65.70;95247.91;5116165;28;972;-67
2022/11/30 10:55:25;;;;;;;;;;;;;;;9.87;66.42;95239.09;5115978;28;1047;-67
2022/11/30 10:58:12;;;;;;;;;;;;;;;9.94;66.67;95234.81;5115921;28;1036;-67
2022/11/30 11:00:38;;;;;;;;;;;;;;;10.13;66.33;95231.09;5115893;28;1201;-66
2022/11/30 11:03:20;;;;;;;;;;;;;;;10.22;65.90;95222.16;5115972;28;1044;-67
2022/11/30 11:05:46;;;;;;;;;;;;;;;10.29;65.73;95223.19;5115842;28;984;-67
2022/11/30 11:08:24;;;;;;;;;;;;;;;10.39;65.42;95230.31;5115718;28;1054;-66
2022/11/30 11:10:50;;;;;;;;;;;;;;;10.23;65.33;95237.19;5115615;28;1988;-67
2022/11/30 11:13:16;;;;;;;;;;;;;;;10.34;65.30;95236.16;5115414;28;1032;-67
2022/11/30 11:15:55;;;;;;;;;;;;;;;10.29;64.97;95233.91;5115639;28;1012;-67
2022/11/30 11:18:24;;;;;;;;;;;;;;;10.23;65.67;95234.53;5115522;28;999;-66
2022/11/30 11:21:10;;;;;;;;;;;;;;;10.14;64.97;95224.78;5115461;28;1016;-66
2022/11/30 11:23:38;;;;;;;;;;;;;;;10.42;65.06;95230.00;5104590;28;1291;-66
2022/11/30 11:26:06;;;;;;;;;;;;;;;10.55;63.93;95225.06;5115488;28;984;-66
2022/11/30 11:28:34;;;;;;;;;;;;;;;10.57;64.43;95219.53;5115345;27;973;-66
2022/11/30 11:31:13;;;;;;;;;;;;;;;10.70;63.94;95223.47;5115239;28;1965;-66
2022/11/30 11:33:49;;;;;;;;;;;;;;;10.58;63.23;95227.41;5115259;28;1003;-66
2022/11/30 11:36:23;;;;;;;;;;;;;;;10.44;63.82;95222.66;5115080;28;1279;-66
2022/11/30 11:38:49;;;;;;;;;;;;;;;10.42;64.22;95219.31;5114999;28;1237;-66
2022/11/30 11:41:27;;;;;;;;;;;;;;;10.61;63.97;95221.75;5114799;28;1099;-66
2022/11/30 11:44:08;;;;;;;;;;;;;;;10.64;64.03;95232.13;5114970;28;1070;-67
2022/11/30 11:46:37;;;;;;;;;;;;;;;10.66;63.97;95226.59;5113203;28;1119;-67
2022/11/30 11:49:04;;;;;;;;;;;;;;;10.73;63.75;95228.47;5114459;28;1036;-66
2022/11/30 11:51:38;;;;;;;;;;;;;;;10.83;63.30;95230.19;5114827;28;1909;-67
2022/11/30 11:54:04;;;;;;;;;;;;;;;10.64;63.58;95228.59;5114942;28;1287;-67
2022/11/30 11:56:31;;;;;;;;;;;;;;;10.63;63.67;95230.44;5114669;28;969;-67
2022/11/30 11:59:00;;;;;;;;;;;;;;;10.75;63.99;95231.81;5114630;28;964;-67
2022/11/30 12:01:38;;;;;;;;;;;;;;;10.73;63.09;95235.66;5114481;28;1108;-66
2022/11/30 12:04:19;;;;;;;;;;;;;;;10.74;63.62;95238.19;5114504;28;1144;-67
2022/11/30 12:06:47;;;;;;;;;;;;;;;10.78;63.18;95237.88;5114505;28;1097;-66
2022/11/30 12:15:30;;;;;;;;;;;;;;;10.69;62.85;95232.47;5073737;28;973;-67
2022/11/30 12:18:09;;;;;;;;;;;;;;;10.67;62.85;95226.44;5073778;28;1019;-65
2022/11/30 12:20:37;;;;;;;;;;;;;;;10.77;62.82;95231.66;5073460;28;1107;-66
2022/11/30 12:23:10;;;;;;;;;;;;;;;10.74;62.92;95238.19;5073534;28;1518;-66
2022/11/30 12:25:44;;;;;;;;;;;;;;;10.64;62.99;95236.63;5073612;28;1095;-67
2022/11/30 12:28:20;;;;;;;;;;;;;;;10.68;63.50;95235.31;5073675;28;1040;-67
2022/11/30 12:30:52;;;;;;;;;;;;;;;10.72;63.59;95229.50;5073446;28;1910;-66
2022/11/30 12:33:21;;;;;;;;;;;;;;;10.86;63.06;95224.53;5073264;28;1040;-66
2022/11/30 12:36:03;;;;;;;;;;;;;;;10.93;63.10;95229.06;5073588;28;1036;-66
2022/11/30 12:38:37;;;;;;;;;;;;;;;10.99;62.79;95229.44;5073219;28;1134;-66
2022/11/30 12:41:17;;;;;;;;;;;;;;;10.91;62.96;95227.56;5073466;28;966;-66
2022/11/30 12:43:49;;;;;;;;;;;;;;;10.88;62.64;95230.56;5072120;28;1000;-65
2022/11/30 12:46:15;;;;;;;;;;;;;;;10.84;62.60;95223.84;5073338;28;1044;-65
2022/11/30 12:48:47;;;;;;;;;;;;;;;10.71;62.88;95229.66;5073255;28;1115;-66
2022/11/30 12:51:20;;;;;;;;;;;;;;;10.69;63.13;95232.47;5071839;28;1913;-66
2022/11/30 12:53:55;;;;;;;;;;;;;;;10.74;63.08;95230.16;5073306;28;1000;-66
2022/11/30 12:56:24;;;;;;;;;;;;;;;10.80;62.87;95228.69;5073070;28;1123;-66
2022/11/30 12:58:59;;;;;;;;;;;;;;;10.87;62.65;95229.72;5074534;28;1048;-66
2022/11/30 13:01:45;;;;;;;;;;;;;;;10.81;62.46;95237.53;5077356;28;1050;-66
2022/11/30 13:04:21;;;;;;;;;;;;;;;10.84;62.18;95234.56;5077340;28;1009;-66
2022/11/30 13:07:13;;;;;;;;;;;;;;;10.85;62.28;95229.06;5077170;28;1050;-66
2022/11/30 13:09:45;;;;;;;;;;;;;;;10.81;62.51;95235.69;5073137;28;1090;-66
2022/11/30 13:12:16;;;;;;;;;;;;;;;10.83;62.45;95235.53;5075719;28;1921;-67
2022/11/30 13:14:42;;;;;;;;;;;;;;;10.79;62.16;95240.38;5106811;28;1080;-67
2022/11/30 13:17:14;;;;;;;;;;;;;;;10.78;62.85;95244.06;5117725;28;1060;-66
2022/11/30 13:19:52;;;;;;;;;;;;;;;10.85;63.33;95236.22;5117928;28;1111;-66
2022/11/30 13:22:23;;;;;;;;;;;;;;;10.84;62.87;95237.22;5117825;28;969;-67
2022/11/30 13:24:57;;;;;;;;;;;;;;;10.85;62.80;95236.22;5117845;28;1668;-67